sensor_id;sensor_type;location;lat;lon;timestamp;temperature;humidity
11764;DHT22;5939;56.522;14.950;2024-03-17T00:00:43;6.30;99.90
11764;DHT22;5939;56.522;14.950;2024-03-17T00:03:09;6.30;99.90
11764;DHT22;5939;56.522;14.950;2024-03-17T00:05:38;6.30;99.90
11764;DHT22;5939;56.522;14.950;2024-03-17T00:08:04;6.30;99.90
11764;DHT22;5939;56.522;14.950;2024-03-17T00:10:33;6.30;99.90
11764;DHT22;5939;56.522;14.950;2024-03-17T00:13:00;6.20;99.90
11764;DHT22;5939;56.522;14.950;2024-03-17T00:15:26;6.20;99.90
11764;DHT22;5939;56.522;14.950;2024-03-17T00:17:52;6.20;99.90
11764;DHT22;5939;56.522;14.950;2024-03-17T00:20:18;6.20;99.90
11764;DHT22;5939;56.522;14.950;2024-03-17T00:22:47;6.20;99.90
11764;DHT22;5939;56.522;14.950;2024-03-17T00:25:13;6.20;99.90
11764;DHT22;5939;56.522;14.950;2024-03-17T00:27:38;6.20;99.90
11764;DHT22;5939;56.522;14.950;2024-03-17T00:30:08;6.10;99.90
11764;DHT22;5939;56.522;14.950;2024-03-17T00:32:41;6.10;99.90
11764;DHT22;5939;56.522;14.950;2024-03-17T00:35:08;6.10;99.90
11764;DHT22;5939;56.522;14.950;2024-03-17T00:37:34;6.10;99.90
11764;DHT22;5939;56.522;14.950;2024-03-17T00:40:03;6.10;99.90
11764;DHT22;5939;56.522;14.950;2024-03-17T00:42:29;6.10;99.90
11764;DHT22;5939;56.522;14.950;2024-03-17T00:44:56;6.10;99.90
11764;DHT22;5939;56.522;14.950;2024-03-17T00:47:22;6.00;99.90
11764;DHT22;5939;56.522;14.950;2024-03-17T00:49:47;6.00;99.90
11764;DHT22;5939;56.522;14.950;2024-03-17T00:52:16;6.00;99.90
11764;DHT22;5939;56.522;14.950;2024-03-17T00:54:41;6.00;99.90
11764;DHT22;5939;56.522;14.950;2024-03-17T00:57:07;6.00;99.90
11764;DHT22;5939;56.522;14.950;2024-03-17T00:59:33;6.00;99.90
11764;DHT22;5939;56.522;14.950;2024-03-17T01:01:58;6.00;99.90
11764;DHT22;5939;56.522;14.950;2024-03-17T01:04:24;5.90;99.90
11764;DHT22;5939;56.522;14.950;2024-03-17T01:06:50;5.90;99.90
11764;DHT22;5939;56.522;14.950;2024-03-17T01:09:15;5.90;99.90
11764;DHT22;5939;56.522;14.950;2024-03-17T01:11:41;5.90;99.90
11764;DHT22;5939;56.522;14.950;2024-03-17T01:14:06;5.90;99.90
11764;DHT22;5939;56.522;14.950;2024-03-17T01:16:33;5.80;99.90
11764;DHT22;5939;56.522;14.950;2024-03-17T01:18:59;5.80;99.90
11764;DHT22;5939;56.522;14.950;2024-03-17T01:21:24;5.80;99.90
11764;DHT22;5939;56.522;14.950;2024-03-17T01:23:50;5.80;99.90
11764;DHT22;5939;56.522;14.950;2024-03-17T01:26:16;5.80;99.90
11764;DHT22;5939;56.522;14.950;2024-03-17T01:28:42;5.80;99.90
11764;DHT22;5939;56.522;14.950;2024-03-17T01:31:08;5.80;99.90
11764;DHT22;5939;56.522;14.950;2024-03-17T01:33:34;5.70;99.90
11764;DHT22;5939;56.522;14.950;2024-03-17T01:36:00;5.70;99.90
11764;DHT22;5939;56.522;14.950;2024-03-17T01:38:26;5.70;99.90
11764;DHT22;5939;56.522;14.950;2024-03-17T01:40:51;5.70;99.90
11764;DHT22;5939;56.522;14.950;2024-03-17T01:43:17;5.70;99.90
11764;DHT22;5939;56.522;14.950;2024-03-17T01:45:43;5.70;99.90
11764;DHT22;5939;56.522;14.950;2024-03-17T01:48:13;5.70;99.90
11764;DHT22;5939;56.522;14.950;2024-03-17T01:50:40;5.60;99.90
11764;DHT22;5939;56.522;14.950;2024-03-17T01:53:07;5.60;99.90
11764;DHT22;5939;56.522;14.950;2024-03-17T01:55:38;5.60;99.90
11764;DHT22;5939;56.522;14.950;2024-03-17T01:58:05;5.60;99.90
11764;DHT22;5939;56.522;14.950;2024-03-17T02:00:35;5.60;99.90
11764;DHT22;5939;56.522;14.950;2024-03-17T02:03:05;5.60;99.90
11764;DHT22;5939;56.522;14.950;2024-03-17T02:05:32;5.50;99.90
11764;DHT22;5939;56.522;14.950;2024-03-17T02:07:59;5.50;99.90
11764;DHT22;5939;56.522;14.950;2024-03-17T02:10:25;5.50;99.90
11764;DHT22;5939;56.522;14.950;2024-03-17T02:12:51;5.50;99.90
11764;DHT22;5939;56.522;14.950;2024-03-17T02:15:17;5.50;99.90
11764;DHT22;5939;56.522;14.950;2024-03-17T02:17:43;5.50;99.90
11764;DHT22;5939;56.522;14.950;2024-03-17T02:20:09;5.40;99.90
11764;DHT22;5939;56.522;14.950;2024-03-17T02:22:39;5.40;99.90
11764;DHT22;5939;56.522;14.950;2024-03-17T02:25:05;5.40;99.90
11764;DHT22;5939;56.522;14.950;2024-03-17T02:27:34;5.40;99.90
11764;DHT22;5939;56.522;14.950;2024-03-17T02:30:00;5.40;99.90
11764;DHT22;5939;56.522;14.950;2024-03-17T02:32:26;5.40;99.90
11764;DHT22;5939;56.522;14.950;2024-03-17T02:34:53;5.40;99.90
11764;DHT22;5939;56.522;14.950;2024-03-17T02:37:18;5.30;99.90
11764;DHT22;5939;56.522;14.950;2024-03-17T02:39:44;5.30;99.90
11764;DHT22;5939;56.522;14.950;2024-03-17T02:42:10;5.30;99.90
11764;DHT22;5939;56.522;14.950;2024-03-17T02:44:37;5.30;99.90
11764;DHT22;5939;56.522;14.950;2024-03-17T02:47:04;5.30;99.90
11764;DHT22;5939;56.522;14.950;2024-03-17T02:49:31;5.30;99.90
11764;DHT22;5939;56.522;14.950;2024-03-17T02:52:06;5.20;99.90
11764;DHT22;5939;56.522;14.950;2024-03-17T02:54:32;5.20;99.90
11764;DHT22;5939;56.522;14.950;2024-03-17T02:57:00;5.20;99.90
11764;DHT22;5939;56.522;14.950;2024-03-17T02:59:25;5.20;99.90
11764;DHT22;5939;56.522;14.950;2024-03-17T03:01:52;5.20;99.90
11764;DHT22;5939;56.522;14.950;2024-03-17T03:04:18;5.20;99.90
11764;DHT22;5939;56.522;14.950;2024-03-17T03:06:43;5.20;99.90
11764;DHT22;5939;56.522;14.950;2024-03-17T03:09:09;5.20;99.90
11764;DHT22;5939;56.522;14.950;2024-03-17T03:11:46;5.10;99.90
11764;DHT22;5939;56.522;14.950;2024-03-17T03:14:12;5.10;99.90
11764;DHT22;5939;56.522;14.950;2024-03-17T03:16:38;5.10;99.90
11764;DHT22;5939;56.522;14.950;2024-03-17T03:19:04;5.10;99.90
11764;DHT22;5939;56.522;14.950;2024-03-17T03:21:31;5.10;99.90
11764;DHT22;5939;56.522;14.950;2024-03-17T03:23:57;5.10;99.90
11764;DHT22;5939;56.522;14.950;2024-03-17T03:26:22;5.10;99.90
11764;DHT22;5939;56.522;14.950;2024-03-17T03:28:49;5.10;99.90
11764;DHT22;5939;56.522;14.950;2024-03-17T03:31:15;5.00;99.90
11764;DHT22;5939;56.522;14.950;2024-03-17T03:33:42;5.00;99.90
11764;DHT22;5939;56.522;14.950;2024-03-17T03:36:12;5.00;99.90
11764;DHT22;5939;56.522;14.950;2024-03-17T03:38:38;5.00;99.90
11764;DHT22;5939;56.522;14.950;2024-03-17T03:41:08;5.00;99.90
11764;DHT22;5939;56.522;14.950;2024-03-17T03:43:35;5.00;99.90
11764;DHT22;5939;56.522;14.950;2024-03-17T03:46:01;5.00;99.90
11764;DHT22;5939;56.522;14.950;2024-03-17T03:48:27;5.00;99.90
11764;DHT22;5939;56.522;14.950;2024-03-17T03:50:53;4.90;99.90
11764;DHT22;5939;56.522;14.950;2024-03-17T03:53:19;4.90;99.90
11764;DHT22;5939;56.522;14.950;2024-03-17T03:55:45;4.90;99.90
11764;DHT22;5939;56.522;14.950;2024-03-17T03:58:11;4.90;99.90
11764;DHT22;5939;56.522;14.950;2024-03-17T04:00:38;4.90;99.90
11764;DHT22;5939;56.522;14.950;2024-03-17T04:03:05;4.90;99.90
11764;DHT22;5939;56.522;14.950;2024-03-17T04:05:31;4.80;99.90
11764;DHT22;5939;56.522;14.950;2024-03-17T04:07:57;4.80;99.90
11764;DHT22;5939;56.522;14.950;2024-03-17T04:10:24;4.80;99.90
11764;DHT22;5939;56.522;14.950;2024-03-17T04:12:51;4.80;99.90
11764;DHT22;5939;56.522;14.950;2024-03-17T04:15:17;4.80;99.90
11764;DHT22;5939;56.522;14.950;2024-03-17T04:17:42;4.80;99.90
11764;DHT22;5939;56.522;14.950;2024-03-17T04:20:09;4.80;99.90
11764;DHT22;5939;56.522;14.950;2024-03-17T04:22:36;4.80;99.90
11764;DHT22;5939;56.522;14.950;2024-03-17T04:25:02;4.70;99.90
11764;DHT22;5939;56.522;14.950;2024-03-17T04:27:29;4.70;99.90
11764;DHT22;5939;56.522;14.950;2024-03-17T04:29:56;4.70;99.90
11764;DHT22;5939;56.522;14.950;2024-03-17T04:32:23;4.70;99.90
11764;DHT22;5939;56.522;14.950;2024-03-17T04:34:49;4.70;99.90
11764;DHT22;5939;56.522;14.950;2024-03-17T04:37:15;4.70;99.90
11764;DHT22;5939;56.522;14.950;2024-03-17T04:39:43;4.70;99.90
11764;DHT22;5939;56.522;14.950;2024-03-17T04:42:13;4.70;99.90
11764;DHT22;5939;56.522;14.950;2024-03-17T04:44:40;4.70;99.90
11764;DHT22;5939;56.522;14.950;2024-03-17T04:47:05;4.70;99.90
11764;DHT22;5939;56.522;14.950;2024-03-17T04:49:42;4.70;99.90
11764;DHT22;5939;56.522;14.950;2024-03-17T04:52:09;4.60;99.90
11764;DHT22;5939;56.522;14.950;2024-03-17T04:54:35;4.60;99.90
11764;DHT22;5939;56.522;14.950;2024-03-17T04:57:01;4.60;99.90
11764;DHT22;5939;56.522;14.950;2024-03-17T04:59:27;4.60;99.90
11764;DHT22;5939;56.522;14.950;2024-03-17T05:01:53;4.60;99.90
11764;DHT22;5939;56.522;14.950;2024-03-17T05:04:19;4.60;99.90
11764;DHT22;5939;56.522;14.950;2024-03-17T05:06:45;4.60;99.90
11764;DHT22;5939;56.522;14.950;2024-03-17T05:09:15;4.60;99.90
11764;DHT22;5939;56.522;14.950;2024-03-17T05:11:41;4.60;99.90
11764;DHT22;5939;56.522;14.950;2024-03-17T05:14:07;4.60;99.90
11764;DHT22;5939;56.522;14.950;2024-03-17T05:16:33;4.50;99.90
11764;DHT22;5939;56.522;14.950;2024-03-17T05:18:59;4.50;99.90
11764;DHT22;5939;56.522;14.950;2024-03-17T05:21:25;4.50;99.90
11764;DHT22;5939;56.522;14.950;2024-03-17T05:23:51;4.50;99.90
11764;DHT22;5939;56.522;14.950;2024-03-17T05:26:17;4.50;99.90
11764;DHT22;5939;56.522;14.950;2024-03-17T05:28:43;4.50;99.90
11764;DHT22;5939;56.522;14.950;2024-03-17T05:31:09;4.50;99.90
11764;DHT22;5939;56.522;14.950;2024-03-17T05:33:35;4.50;99.90
11764;DHT22;5939;56.522;14.950;2024-03-17T05:36:02;4.50;99.90
11764;DHT22;5939;56.522;14.950;2024-03-17T05:38:29;4.50;99.90
11764;DHT22;5939;56.522;14.950;2024-03-17T05:40:59;4.40;99.90
11764;DHT22;5939;56.522;14.950;2024-03-17T05:43:26;4.40;99.90
11764;DHT22;5939;56.522;14.950;2024-03-17T05:45:52;4.40;99.90
11764;DHT22;5939;56.522;14.950;2024-03-17T05:48:19;4.40;99.90
11764;DHT22;5939;56.522;14.950;2024-03-17T05:50:45;4.40;99.90
11764;DHT22;5939;56.522;14.950;2024-03-17T05:53:11;4.40;99.90
11764;DHT22;5939;56.522;14.950;2024-03-17T05:55:37;4.40;99.90
11764;DHT22;5939;56.522;14.950;2024-03-17T05:58:03;4.40;99.90
11764;DHT22;5939;56.522;14.950;2024-03-17T06:00:29;4.40;99.90
11764;DHT22;5939;56.522;14.950;2024-03-17T06:02:56;4.40;99.90
11764;DHT22;5939;56.522;14.950;2024-03-17T06:05:22;4.30;99.90
11764;DHT22;5939;56.522;14.950;2024-03-17T06:07:48;4.30;99.90
11764;DHT22;5939;56.522;14.950;2024-03-17T06:10:14;4.30;99.90
11764;DHT22;5939;56.522;14.950;2024-03-17T06:12:39;4.30;99.90
11764;DHT22;5939;56.522;14.950;2024-03-17T06:15:05;4.30;99.90
11764;DHT22;5939;56.522;14.950;2024-03-17T06:17:31;4.30;99.90
11764;DHT22;5939;56.522;14.950;2024-03-17T06:19:57;4.30;99.90
11764;DHT22;5939;56.522;14.950;2024-03-17T06:22:23;4.30;99.90
11764;DHT22;5939;56.522;14.950;2024-03-17T06:24:49;4.30;99.90
11764;DHT22;5939;56.522;14.950;2024-03-17T06:27:15;4.30;99.90
11764;DHT22;5939;56.522;14.950;2024-03-17T06:29:41;4.30;99.90
11764;DHT22;5939;56.522;14.950;2024-03-17T06:32:08;4.20;99.90
11764;DHT22;5939;56.522;14.950;2024-03-17T06:34:34;4.20;99.90
11764;DHT22;5939;56.522;14.950;2024-03-17T06:36:59;4.20;99.90
11764;DHT22;5939;56.522;14.950;2024-03-17T06:39:25;4.20;99.90
11764;DHT22;5939;56.522;14.950;2024-03-17T06:41:51;4.20;99.90
11764;DHT22;5939;56.522;14.950;2024-03-17T06:44:17;4.20;99.90
11764;DHT22;5939;56.522;14.950;2024-03-17T06:46:42;4.20;99.90
11764;DHT22;5939;56.522;14.950;2024-03-17T06:49:09;4.20;99.90
11764;DHT22;5939;56.522;14.950;2024-03-17T06:51:35;4.20;99.90
11764;DHT22;5939;56.522;14.950;2024-03-17T06:54:01;4.20;99.90
11764;DHT22;5939;56.522;14.950;2024-03-17T06:56:26;4.20;99.90
11764;DHT22;5939;56.522;14.950;2024-03-17T06:58:52;4.20;99.90
11764;DHT22;5939;56.522;14.950;2024-03-17T07:01:19;4.10;99.90
11764;DHT22;5939;56.522;14.950;2024-03-17T07:03:44;4.20;99.90
11764;DHT22;5939;56.522;14.950;2024-03-17T07:06:10;4.20;99.90
11764;DHT22;5939;56.522;14.950;2024-03-17T07:08:36;4.10;99.90
11764;DHT22;5939;56.522;14.950;2024-03-17T07:11:05;4.10;99.90
11764;DHT22;5939;56.522;14.950;2024-03-17T07:13:36;4.10;99.90
11764;DHT22;5939;56.522;14.950;2024-03-17T07:16:03;4.10;99.90
11764;DHT22;5939;56.522;14.950;2024-03-17T07:18:31;4.10;99.90
11764;DHT22;5939;56.522;14.950;2024-03-17T07:21:01;4.10;99.90
11764;DHT22;5939;56.522;14.950;2024-03-17T07:23:31;4.10;99.90
11764;DHT22;5939;56.522;14.950;2024-03-17T07:25:58;4.10;99.90
11764;DHT22;5939;56.522;14.950;2024-03-17T07:28:24;4.10;99.90
11764;DHT22;5939;56.522;14.950;2024-03-17T07:30:52;4.10;99.90
11764;DHT22;5939;56.522;14.950;2024-03-17T07:33:18;4.10;99.90
11764;DHT22;5939;56.522;14.950;2024-03-17T07:35:52;4.10;99.90
11764;DHT22;5939;56.522;14.950;2024-03-17T07:38:18;4.10;99.90
11764;DHT22;5939;56.522;14.950;2024-03-17T07:43:25;4.10;99.90
11764;DHT22;5939;56.522;14.950;2024-03-17T07:46:08;4.10;99.90
11764;DHT22;5939;56.522;14.950;2024-03-17T07:48:36;4.10;99.90
11764;DHT22;5939;56.522;14.950;2024-03-17T07:51:07;4.10;99.90
11764;DHT22;5939;56.522;14.950;2024-03-17T07:53:34;4.10;99.90
11764;DHT22;5939;56.522;14.950;2024-03-17T07:56:05;4.10;99.90
11764;DHT22;5939;56.522;14.950;2024-03-17T07:58:32;4.10;99.90
11764;DHT22;5939;56.522;14.950;2024-03-17T08:01:02;4.00;99.90
11764;DHT22;5939;56.522;14.950;2024-03-17T08:03:29;4.00;99.90
11764;DHT22;5939;56.522;14.950;2024-03-17T08:05:57;4.00;99.90
11764;DHT22;5939;56.522;14.950;2024-03-17T08:08:23;4.00;99.90
11764;DHT22;5939;56.522;14.950;2024-03-17T08:10:49;4.10;99.90
11764;DHT22;5939;56.522;14.950;2024-03-17T08:13:19;4.10;99.90
11764;DHT22;5939;56.522;14.950;2024-03-17T08:15:46;4.10;99.90
11764;DHT22;5939;56.522;14.950;2024-03-17T08:18:12;4.10;99.90
11764;DHT22;5939;56.522;14.950;2024-03-17T08:20:42;4.10;99.90
11764;DHT22;5939;56.522;14.950;2024-03-17T08:23:09;4.10;99.90
11764;DHT22;5939;56.522;14.950;2024-03-17T08:25:36;4.20;99.90
11764;DHT22;5939;56.522;14.950;2024-03-17T08:28:02;4.20;99.90
11764;DHT22;5939;56.522;14.950;2024-03-17T08:30:28;4.20;99.90
11764;DHT22;5939;56.522;14.950;2024-03-17T08:32:56;4.20;99.90
11764;DHT22;5939;56.522;14.950;2024-03-17T08:35:22;4.20;99.90
11764;DHT22;5939;56.522;14.950;2024-03-17T08:37:47;4.30;99.90
11764;DHT22;5939;56.522;14.950;2024-03-17T08:40:14;4.30;99.90
11764;DHT22;5939;56.522;14.950;2024-03-17T08:42:40;4.30;99.90
11764;DHT22;5939;56.522;14.950;2024-03-17T08:45:06;4.30;99.90
11764;DHT22;5939;56.522;14.950;2024-03-17T08:47:32;4.30;99.90
11764;DHT22;5939;56.522;14.950;2024-03-17T08:49:57;4.40;99.90
11764;DHT22;5939;56.522;14.950;2024-03-17T08:52:32;4.40;99.90
11764;DHT22;5939;56.522;14.950;2024-03-17T08:54:58;4.40;99.90
11764;DHT22;5939;56.522;14.950;2024-03-17T08:57:24;4.40;99.90
11764;DHT22;5939;56.522;14.950;2024-03-17T08:59:50;4.50;99.90
11764;DHT22;5939;56.522;14.950;2024-03-17T09:02:18;4.50;99.90
11764;DHT22;5939;56.522;14.950;2024-03-17T09:04:45;4.50;99.90
11764;DHT22;5939;56.522;14.950;2024-03-17T09:07:10;4.60;99.90
11764;DHT22;5939;56.522;14.950;2024-03-17T09:09:36;4.60;99.90
11764;DHT22;5939;56.522;14.950;2024-03-17T09:12:02;4.60;99.90
11764;DHT22;5939;56.522;14.950;2024-03-17T09:14:29;4.60;99.90
11764;DHT22;5939;56.522;14.950;2024-03-17T09:16:54;4.70;99.90
11764;DHT22;5939;56.522;14.950;2024-03-17T09:19:20;4.70;99.90
11764;DHT22;5939;56.522;14.950;2024-03-17T09:21:46;4.70;99.90
11764;DHT22;5939;56.522;14.950;2024-03-17T09:24:13;4.80;99.90
11764;DHT22;5939;56.522;14.950;2024-03-17T09:26:38;4.80;99.90
11764;DHT22;5939;56.522;14.950;2024-03-17T09:29:06;4.90;99.90
11764;DHT22;5939;56.522;14.950;2024-03-17T09:31:32;4.90;99.90
11764;DHT22;5939;56.522;14.950;2024-03-17T09:34:03;4.90;99.90
11764;DHT22;5939;56.522;14.950;2024-03-17T09:36:30;5.00;99.90
11764;DHT22;5939;56.522;14.950;2024-03-17T09:38:56;5.00;99.90
11764;DHT22;5939;56.522;14.950;2024-03-17T09:41:23;5.10;99.90
11764;DHT22;5939;56.522;14.950;2024-03-17T09:43:55;5.10;99.90
11764;DHT22;5939;56.522;14.950;2024-03-17T09:46:23;5.20;99.90
11764;DHT22;5939;56.522;14.950;2024-03-17T09:48:49;5.20;99.90
11764;DHT22;5939;56.522;14.950;2024-03-17T09:51:20;5.30;99.90
11764;DHT22;5939;56.522;14.950;2024-03-17T09:53:46;5.30;99.90
11764;DHT22;5939;56.522;14.950;2024-03-17T09:56:14;5.40;99.90
11764;DHT22;5939;56.522;14.950;2024-03-17T09:58:45;5.40;99.90
11764;DHT22;5939;56.522;14.950;2024-03-17T10:01:11;5.50;99.90
11764;DHT22;5939;56.522;14.950;2024-03-17T10:03:49;5.60;99.90
11764;DHT22;5939;56.522;14.950;2024-03-17T10:06:21;5.60;99.90
11764;DHT22;5939;56.522;14.950;2024-03-17T10:08:57;5.70;99.90
11764;DHT22;5939;56.522;14.950;2024-03-17T10:11:24;5.70;99.90
11764;DHT22;5939;56.522;14.950;2024-03-17T10:16:30;5.90;99.90
11764;DHT22;5939;56.522;14.950;2024-03-17T10:21:46;6.00;99.90
11764;DHT22;5939;56.522;14.950;2024-03-17T10:24:25;6.00;99.90
11764;DHT22;5939;56.522;14.950;2024-03-17T10:26:54;6.10;99.90
11764;DHT22;5939;56.522;14.950;2024-03-17T10:29:31;6.20;99.90
11764;DHT22;5939;56.522;14.950;2024-03-17T10:34:26;6.30;99.90
11764;DHT22;5939;56.522;14.950;2024-03-17T10:37:17;6.30;99.90
11764;DHT22;5939;56.522;14.950;2024-03-17T10:39:51;6.40;99.90
11764;DHT22;5939;56.522;14.950;2024-03-17T10:42:28;6.50;99.90
11764;DHT22;5939;56.522;14.950;2024-03-17T10:44:54;6.50;99.90
11764;DHT22;5939;56.522;14.950;2024-03-17T10:47:26;6.50;99.90
11764;DHT22;5939;56.522;14.950;2024-03-17T10:49:53;6.60;99.90
11764;DHT22;5939;56.522;14.950;2024-03-17T10:52:20;6.70;99.90
11764;DHT22;5939;56.522;14.950;2024-03-17T10:54:51;6.70;99.90
11764;DHT22;5939;56.522;14.950;2024-03-17T11:00:03;6.80;99.90
11764;DHT22;5939;56.522;14.950;2024-03-17T11:02:31;6.90;99.90
11764;DHT22;5939;56.522;14.950;2024-03-17T11:05:15;6.90;99.90
11764;DHT22;5939;56.522;14.950;2024-03-17T11:07:43;7.00;99.90
11764;DHT22;5939;56.522;14.950;2024-03-17T11:10:35;7.00;99.90
11764;DHT22;5939;56.522;14.950;2024-03-17T11:13:03;7.10;99.90
11764;DHT22;5939;56.522;14.950;2024-03-17T11:20:42;7.20;99.90
11764;DHT22;5939;56.522;14.950;2024-03-17T11:23:08;7.30;99.90
11764;DHT22;5939;56.522;14.950;2024-03-17T11:25:41;7.30;99.90
11764;DHT22;5939;56.522;14.950;2024-03-17T11:28:08;7.40;99.90
11764;DHT22;5939;56.522;14.950;2024-03-17T11:30:49;7.40;99.90
11764;DHT22;5939;56.522;14.950;2024-03-17T11:39:02;7.60;99.90
11764;DHT22;5939;56.522;14.950;2024-03-17T11:47:02;7.70;99.90
11764;DHT22;5939;56.522;14.950;2024-03-17T11:49:39;7.70;99.90
11764;DHT22;5939;56.522;14.950;2024-03-17T11:52:09;7.80;99.90
11764;DHT22;5939;56.522;14.950;2024-03-17T11:54:37;7.80;99.90
11764;DHT22;5939;56.522;14.950;2024-03-17T11:57:06;7.80;99.90
11764;DHT22;5939;56.522;14.950;2024-03-17T11:59:33;7.90;99.90
11764;DHT22;5939;56.522;14.950;2024-03-17T12:01:59;7.90;99.90
11764;DHT22;5939;56.522;14.950;2024-03-17T12:04:25;7.90;99.90
11764;DHT22;5939;56.522;14.950;2024-03-17T12:06:58;7.90;99.90
11764;DHT22;5939;56.522;14.950;2024-03-17T12:09:29;7.90;99.90
11764;DHT22;5939;56.522;14.950;2024-03-17T12:12:01;7.90;99.90
11764;DHT22;5939;56.522;14.950;2024-03-17T12:14:27;7.90;99.90
11764;DHT22;5939;56.522;14.950;2024-03-17T12:16:57;7.90;99.90
11764;DHT22;5939;56.522;14.950;2024-03-17T12:19:24;7.90;99.90
11764;DHT22;5939;56.522;14.950;2024-03-17T12:21:52;8.00;99.90
11764;DHT22;5939;56.522;14.950;2024-03-17T12:24:33;7.90;99.90
11764;DHT22;5939;56.522;14.950;2024-03-17T12:27:00;7.90;99.90
11764;DHT22;5939;56.522;14.950;2024-03-17T12:29:28;8.00;99.90
11764;DHT22;5939;56.522;14.950;2024-03-17T12:32:20;7.90;99.90
11764;DHT22;5939;56.522;14.950;2024-03-17T12:34:55;7.90;99.90
11764;DHT22;5939;56.522;14.950;2024-03-17T12:37:22;8.00;99.90
11764;DHT22;5939;56.522;14.950;2024-03-17T12:39:49;7.90;99.90
11764;DHT22;5939;56.522;14.950;2024-03-17T12:42:15;7.90;99.90
11764;DHT22;5939;56.522;14.950;2024-03-17T12:47:16;7.90;99.90
11764;DHT22;5939;56.522;14.950;2024-03-17T12:49:53;7.90;99.90
11764;DHT22;5939;56.522;14.950;2024-03-17T12:52:29;7.90;99.90
11764;DHT22;5939;56.522;14.950;2024-03-17T12:55:02;7.90;99.90
11764;DHT22;5939;56.522;14.950;2024-03-17T13:00:35;7.90;99.90
11764;DHT22;5939;56.522;14.950;2024-03-17T13:03:05;7.80;99.90
11764;DHT22;5939;56.522;14.950;2024-03-17T13:05:35;7.80;99.90
11764;DHT22;5939;56.522;14.950;2024-03-17T13:08:01;7.80;99.90
11764;DHT22;5939;56.522;14.950;2024-03-17T13:10:28;7.80;99.90
11764;DHT22;5939;56.522;14.950;2024-03-17T13:13:01;7.80;99.90
11764;DHT22;5939;56.522;14.950;2024-03-17T13:15:28;7.80;99.90
11764;DHT22;5939;56.522;14.950;2024-03-17T13:17:56;7.80;99.90
11764;DHT22;5939;56.522;14.950;2024-03-17T13:20:22;7.70;99.90
11764;DHT22;5939;56.522;14.950;2024-03-17T13:22:48;7.70;99.90
11764;DHT22;5939;56.522;14.950;2024-03-17T13:25:15;7.70;99.90
11764;DHT22;5939;56.522;14.950;2024-03-17T13:27:45;7.70;99.90
11764;DHT22;5939;56.522;14.950;2024-03-17T13:30:14;7.70;99.90
11764;DHT22;5939;56.522;14.950;2024-03-17T13:32:40;7.70;99.90
11764;DHT22;5939;56.522;14.950;2024-03-17T13:35:18;7.60;99.90
11764;DHT22;5939;56.522;14.950;2024-03-17T13:37:49;7.60;99.90
11764;DHT22;5939;56.522;14.950;2024-03-17T13:40:16;7.60;99.90
11764;DHT22;5939;56.522;14.950;2024-03-17T13:42:44;7.60;99.90
11764;DHT22;5939;56.522;14.950;2024-03-17T13:45:11;7.60;99.90
11764;DHT22;5939;56.522;14.950;2024-03-17T13:47:38;7.60;99.90
11764;DHT22;5939;56.522;14.950;2024-03-17T13:50:04;7.60;99.90
11764;DHT22;5939;56.522;14.950;2024-03-17T13:52:44;7.50;99.90
11764;DHT22;5939;56.522;14.950;2024-03-17T13:55:18;7.50;99.90
11764;DHT22;5939;56.522;14.950;2024-03-17T13:57:45;7.50;99.90
11764;DHT22;5939;56.522;14.950;2024-03-17T14:00:12;7.50;99.90
11764;DHT22;5939;56.522;14.950;2024-03-17T14:02:43;7.40;99.90
11764;DHT22;5939;56.522;14.950;2024-03-17T14:05:13;7.40;99.90
11764;DHT22;5939;56.522;14.950;2024-03-17T14:07:39;7.40;99.90
11764;DHT22;5939;56.522;14.950;2024-03-17T14:10:05;7.40;99.90
11764;DHT22;5939;56.522;14.950;2024-03-17T14:12:31;7.30;99.90
11764;DHT22;5939;56.522;14.950;2024-03-17T14:14:57;7.30;99.90
11764;DHT22;5939;56.522;14.950;2024-03-17T14:17:23;7.30;99.90
11764;DHT22;5939;56.522;14.950;2024-03-17T14:19:48;7.30;99.90
11764;DHT22;5939;56.522;14.950;2024-03-17T14:22:14;7.30;99.90
11764;DHT22;5939;56.522;14.950;2024-03-17T14:24:40;7.30;99.90
11764;DHT22;5939;56.522;14.950;2024-03-17T14:27:06;7.20;99.90
11764;DHT22;5939;56.522;14.950;2024-03-17T14:29:32;7.30;99.90
11764;DHT22;5939;56.522;14.950;2024-03-17T14:31:58;7.20;99.90
11764;DHT22;5939;56.522;14.950;2024-03-17T14:34:24;7.20;99.90
11764;DHT22;5939;56.522;14.950;2024-03-17T14:36:49;7.20;99.90
11764;DHT22;5939;56.522;14.950;2024-03-17T14:39:15;7.10;99.90
11764;DHT22;5939;56.522;14.950;2024-03-17T14:41:41;7.10;99.90
11764;DHT22;5939;56.522;14.950;2024-03-17T14:44:06;7.10;99.90
11764;DHT22;5939;56.522;14.950;2024-03-17T14:46:33;7.10;99.90
11764;DHT22;5939;56.522;14.950;2024-03-17T14:48:59;7.00;99.90
11764;DHT22;5939;56.522;14.950;2024-03-17T14:51:24;7.00;99.90
11764;DHT22;5939;56.522;14.950;2024-03-17T14:53:50;7.00;99.90
11764;DHT22;5939;56.522;14.950;2024-03-17T14:56:19;7.00;99.90
11764;DHT22;5939;56.522;14.950;2024-03-17T14:58:45;7.00;99.90
11764;DHT22;5939;56.522;14.950;2024-03-17T15:01:14;7.00;99.90
11764;DHT22;5939;56.522;14.950;2024-03-17T15:03:40;7.00;99.90
11764;DHT22;5939;56.522;14.950;2024-03-17T15:06:11;7.00;99.90
11764;DHT22;5939;56.522;14.950;2024-03-17T15:08:36;6.90;99.90
11764;DHT22;5939;56.522;14.950;2024-03-17T15:11:02;6.90;99.90
11764;DHT22;5939;56.522;14.950;2024-03-17T15:13:28;6.90;99.90
11764;DHT22;5939;56.522;14.950;2024-03-17T15:15:54;6.90;99.90
11764;DHT22;5939;56.522;14.950;2024-03-17T15:18:21;6.80;99.90
11764;DHT22;5939;56.522;14.950;2024-03-17T15:20:53;6.80;99.90
11764;DHT22;5939;56.522;14.950;2024-03-17T15:23:21;6.80;99.90
11764;DHT22;5939;56.522;14.950;2024-03-17T15:25:47;6.80;99.90
11764;DHT22;5939;56.522;14.950;2024-03-17T15:28:12;6.80;99.90
11764;DHT22;5939;56.522;14.950;2024-03-17T15:30:38;6.80;99.90
11764;DHT22;5939;56.522;14.950;2024-03-17T15:33:04;6.80;99.90
11764;DHT22;5939;56.522;14.950;2024-03-17T15:35:30;6.70;99.90
11764;DHT22;5939;56.522;14.950;2024-03-17T15:37:57;6.70;99.90
11764;DHT22;5939;56.522;14.950;2024-03-17T15:40:23;6.70;99.90
11764;DHT22;5939;56.522;14.950;2024-03-17T15:42:50;6.70;99.90
11764;DHT22;5939;56.522;14.950;2024-03-17T15:45:17;6.70;99.90
11764;DHT22;5939;56.522;14.950;2024-03-17T15:47:46;6.60;99.90
11764;DHT22;5939;56.522;14.950;2024-03-17T15:50:12;6.60;99.90
11764;DHT22;5939;56.522;14.950;2024-03-17T15:52:40;6.60;99.90
11764;DHT22;5939;56.522;14.950;2024-03-17T15:55:08;6.60;99.90
11764;DHT22;5939;56.522;14.950;2024-03-17T15:57:34;6.60;99.90
11764;DHT22;5939;56.522;14.950;2024-03-17T15:59:59;6.60;99.90
11764;DHT22;5939;56.522;14.950;2024-03-17T16:02:28;6.50;99.90
11764;DHT22;5939;56.522;14.950;2024-03-17T16:04:55;6.50;99.90
11764;DHT22;5939;56.522;14.950;2024-03-17T16:07:24;6.50;99.90
11764;DHT22;5939;56.522;14.950;2024-03-17T16:09:52;8.50;99.90
11764;DHT22;5939;56.522;14.950;2024-03-17T16:12:19;6.50;99.90
11764;DHT22;5939;56.522;14.950;2024-03-17T16:14:46;6.40;99.90
11764;DHT22;5939;56.522;14.950;2024-03-17T16:17:14;6.40;99.90
11764;DHT22;5939;56.522;14.950;2024-03-17T16:19:43;6.40;99.90
11764;DHT22;5939;56.522;14.950;2024-03-17T16:22:11;6.40;99.90